sensor_id;sensor_type;location;lat;lon;timestamp;temperature;humidity
67141;DHT22;54058;52.010;5.546;2023-02-25T00:01:19;5.10;91.40
67141;DHT22;54058;52.010;5.546;2023-02-25T00:03:45;5.10;91.30
67141;DHT22;54058;52.010;5.546;2023-02-25T00:06:12;5.10;91.30
67141;DHT22;54058;52.010;5.546;2023-02-25T00:08:41;5.10;91.30
67141;DHT22;54058;52.010;5.546;2023-02-25T00:11:07;5.10;91.30
67141;DHT22;54058;52.010;5.546;2023-02-25T00:13:33;5.10;91.30
67141;DHT22;54058;52.010;5.546;2023-02-25T00:16:02;5.20;91.30
67141;DHT22;54058;52.010;5.546;2023-02-25T00:18:29;5.20;91.40
67141;DHT22;54058;52.010;5.546;2023-02-25T00:20:58;5.30;91.30
67141;DHT22;54058;52.010;5.546;2023-02-25T00:23:25;5.30;91.40
67141;DHT22;54058;52.010;5.546;2023-02-25T00:25:59;5.40;91.40
67141;DHT22;54058;52.010;5.546;2023-02-25T00:28:25;5.40;91.30
67141;DHT22;54058;52.010;5.546;2023-02-25T00:30:50;5.40;91.40
67141;DHT22;54058;52.010;5.546;2023-02-25T00:33:16;5.40;91.30
67141;DHT22;54058;52.010;5.546;2023-02-25T00:35:41;5.40;91.20
67141;DHT22;54058;52.010;5.546;2023-02-25T00:38:08;5.40;91.20
67141;DHT22;54058;52.010;5.546;2023-02-25T00:40:37;5.40;91.20
67141;DHT22;54058;52.010;5.546;2023-02-25T00:43:03;5.40;91.20
67141;DHT22;54058;52.010;5.546;2023-02-25T00:45:29;5.40;91.20
67141;DHT22;54058;52.010;5.546;2023-02-25T00:47:55;5.40;91.20
67141;DHT22;54058;52.010;5.546;2023-02-25T00:50:20;5.40;91.00
67141;DHT22;54058;52.010;5.546;2023-02-25T00:52:46;5.40;91.10
67141;DHT22;54058;52.010;5.546;2023-02-25T00:55:12;5.30;91.10
67141;DHT22;54058;52.010;5.546;2023-02-25T00:57:37;5.40;91.00
67141;DHT22;54058;52.010;5.546;2023-02-25T01:00:05;5.40;91.20
67141;DHT22;54058;52.010;5.546;2023-02-25T01:02:35;5.40;91.20
67141;DHT22;54058;52.010;5.546;2023-02-25T01:05:01;5.40;91.20
67141;DHT22;54058;52.010;5.546;2023-02-25T01:07:27;5.40;91.20
67141;DHT22;54058;52.010;5.546;2023-02-25T01:09:56;5.40;91.10
67141;DHT22;54058;52.010;5.546;2023-02-25T01:12:22;5.40;91.10
67141;DHT22;54058;52.010;5.546;2023-02-25T01:14:47;5.30;91.20
67141;DHT22;54058;52.010;5.546;2023-02-25T01:17:13;5.30;91.20
67141;DHT22;54058;52.010;5.546;2023-02-25T01:19:39;5.30;91.30
67141;DHT22;54058;52.010;5.546;2023-02-25T01:22:05;5.30;91.60
67141;DHT22;54058;52.010;5.546;2023-02-25T01:24:32;5.40;91.40
67141;DHT22;54058;52.010;5.546;2023-02-25T01:27:00;5.40;91.40
67141;DHT22;54058;52.010;5.546;2023-02-25T01:29:36;5.40;91.40
67141;DHT22;54058;52.010;5.546;2023-02-25T01:32:13;5.40;91.30
67141;DHT22;54058;52.010;5.546;2023-02-25T01:34:39;5.40;91.30
67141;DHT22;54058;52.010;5.546;2023-02-25T01:37:05;5.40;91.20
67141;DHT22;54058;52.010;5.546;2023-02-25T01:39:31;5.40;91.30
67141;DHT22;54058;52.010;5.546;2023-02-25T01:41:58;5.40;91.40
67141;DHT22;54058;52.010;5.546;2023-02-25T01:44:36;5.50;91.30
67141;DHT22;54058;52.010;5.546;2023-02-25T01:47:03;5.50;91.30
67141;DHT22;54058;52.010;5.546;2023-02-25T01:49:40;5.50;91.30
67141;DHT22;54058;52.010;5.546;2023-02-25T01:52:12;5.50;91.30
67141;DHT22;54058;52.010;5.546;2023-02-25T01:54:39;5.50;91.30
67141;DHT22;54058;52.010;5.546;2023-02-25T01:57:08;5.40;91.20
67141;DHT22;54058;52.010;5.546;2023-02-25T01:59:35;5.40;91.40
67141;DHT22;54058;52.010;5.546;2023-02-25T02:02:02;5.40;91.20
67141;DHT22;54058;52.010;5.546;2023-02-25T02:04:29;5.40;91.20
67141;DHT22;54058;52.010;5.546;2023-02-25T02:06:57;5.30;91.20
67141;DHT22;54058;52.010;5.546;2023-02-25T02:09:24;5.30;91.30
67141;DHT22;54058;52.010;5.546;2023-02-25T02:11:50;5.30;91.10
67141;DHT22;54058;52.010;5.546;2023-02-25T02:14:24;5.30;91.30
67141;DHT22;54058;52.010;5.546;2023-02-25T02:17:26;5.40;91.20
67141;DHT22;54058;52.010;5.546;2023-02-25T02:22:53;5.30;91.10
67141;DHT22;54058;52.010;5.546;2023-02-25T02:41:58;5.30;91.20
67141;DHT22;54058;52.010;5.546;2023-02-25T02:44:41;5.30;91.20
67141;DHT22;54058;52.010;5.546;2023-02-25T02:47:15;5.30;91.10
67141;DHT22;54058;52.010;5.546;2023-02-25T02:49:55;5.40;91.20
67141;DHT22;54058;52.010;5.546;2023-02-25T02:52:28;5.40;91.20
67141;DHT22;54058;52.010;5.546;2023-02-25T02:55:00;5.50;91.10
67141;DHT22;54058;52.010;5.546;2023-02-25T02:57:28;5.50;91.20
67141;DHT22;54058;52.010;5.546;2023-02-25T03:00:00;5.50;91.10
67141;DHT22;54058;52.010;5.546;2023-02-25T03:02:37;5.50;91.10
67141;DHT22;54058;52.010;5.546;2023-02-25T03:05:08;5.50;91.10
67141;DHT22;54058;52.010;5.546;2023-02-25T03:07:46;5.50;91.10
67141;DHT22;54058;52.010;5.546;2023-02-25T03:10:16;5.50;91.10
67141;DHT22;54058;52.010;5.546;2023-02-25T03:12:44;5.50;91.20
67141;DHT22;54058;52.010;5.546;2023-02-25T03:15:10;5.50;91.20
67141;DHT22;54058;52.010;5.546;2023-02-25T03:17:43;5.50;91.20
67141;DHT22;54058;52.010;5.546;2023-02-25T03:20:24;5.50;91.20
67141;DHT22;54058;52.010;5.546;2023-02-25T03:22:53;5.50;91.20
67141;DHT22;54058;52.010;5.546;2023-02-25T03:27:47;5.50;91.20
67141;DHT22;54058;52.010;5.546;2023-02-25T03:30:36;5.50;91.20
67141;DHT22;54058;52.010;5.546;2023-02-25T03:33:42;5.50;91.20
67141;DHT22;54058;52.010;5.546;2023-02-25T03:36:18;5.40;91.20
67141;DHT22;54058;52.010;5.546;2023-02-25T03:38:49;5.50;91.30
67141;DHT22;54058;52.010;5.546;2023-02-25T03:41:17;5.50;91.40
67141;DHT22;54058;52.010;5.546;2023-02-25T03:43:48;5.50;91.30
67141;DHT22;54058;52.010;5.546;2023-02-25T03:46:18;5.50;91.30
67141;DHT22;54058;52.010;5.546;2023-02-25T03:48:44;5.60;91.30
67141;DHT22;54058;52.010;5.546;2023-02-25T03:51:12;5.60;91.30
67141;DHT22;54058;52.010;5.546;2023-02-25T03:53:39;5.60;91.30
67141;DHT22;54058;52.010;5.546;2023-02-25T03:56:07;5.70;91.40
67141;DHT22;54058;52.010;5.546;2023-02-25T03:58:35;5.70;91.30
67141;DHT22;54058;52.010;5.546;2023-02-25T04:01:09;5.70;91.30
67141;DHT22;54058;52.010;5.546;2023-02-25T04:03:36;5.70;91.30
67141;DHT22;54058;52.010;5.546;2023-02-25T04:06:02;5.70;91.30
67141;DHT22;54058;52.010;5.546;2023-02-25T04:08:28;5.70;91.20
67141;DHT22;54058;52.010;5.546;2023-02-25T04:10:53;5.70;91.20
67141;DHT22;54058;52.010;5.546;2023-02-25T04:13:19;5.70;91.20
67141;DHT22;54058;52.010;5.546;2023-02-25T04:15:45;5.70;91.20
67141;DHT22;54058;52.010;5.546;2023-02-25T04:18:11;5.70;91.10
67141;DHT22;54058;52.010;5.546;2023-02-25T04:20:38;5.70;91.10
67141;DHT22;54058;52.010;5.546;2023-02-25T04:23:05;5.70;91.20
67141;DHT22;54058;52.010;5.546;2023-02-25T04:25:30;5.70;90.80
67141;DHT22;54058;52.010;5.546;2023-02-25T04:27:56;5.70;91.00
67141;DHT22;54058;52.010;5.546;2023-02-25T04:30:22;5.60;90.90
67141;DHT22;54058;52.010;5.546;2023-02-25T04:32:47;5.60;90.90
67141;DHT22;54058;52.010;5.546;2023-02-25T04:35:13;5.50;90.90
67141;DHT22;54058;52.010;5.546;2023-02-25T04:37:40;5.50;90.80
67141;DHT22;54058;52.010;5.546;2023-02-25T04:40:08;5.40;90.80
67141;DHT22;54058;52.010;5.546;2023-02-25T04:42:38;5.40;90.70
67141;DHT22;54058;52.010;5.546;2023-02-25T04:45:05;5.30;90.80
67141;DHT22;54058;52.010;5.546;2023-02-25T04:47:31;5.30;90.80
67141;DHT22;54058;52.010;5.546;2023-02-25T04:49:57;5.20;90.70
67141;DHT22;54058;52.010;5.546;2023-02-25T04:52:23;5.10;90.70
67141;DHT22;54058;52.010;5.546;2023-02-25T04:54:49;5.10;90.80
67141;DHT22;54058;52.010;5.546;2023-02-25T04:57:14;5.10;90.80
67141;DHT22;54058;52.010;5.546;2023-02-25T04:59:40;5.00;90.80
67141;DHT22;54058;52.010;5.546;2023-02-25T05:02:06;5.10;90.90
67141;DHT22;54058;52.010;5.546;2023-02-25T05:04:33;5.00;91.00
67141;DHT22;54058;52.010;5.546;2023-02-25T05:06:59;5.00;90.90
67141;DHT22;54058;52.010;5.546;2023-02-25T05:09:25;5.00;90.90
67141;DHT22;54058;52.010;5.546;2023-02-25T05:11:51;5.00;90.80
67141;DHT22;54058;52.010;5.546;2023-02-25T05:14:17;5.00;90.80
67141;DHT22;54058;52.010;5.546;2023-02-25T05:16:43;5.00;90.80
67141;DHT22;54058;52.010;5.546;2023-02-25T05:19:17;5.00;90.80
67141;DHT22;54058;52.010;5.546;2023-02-25T05:21:43;5.00;90.80
67141;DHT22;54058;52.010;5.546;2023-02-25T05:24:10;5.00;90.80
67141;DHT22;54058;52.010;5.546;2023-02-25T05:26:36;5.10;90.90
67141;DHT22;54058;52.010;5.546;2023-02-25T05:29:02;5.10;90.80
67141;DHT22;54058;52.010;5.546;2023-02-25T05:31:28;5.10;90.60
67141;DHT22;54058;52.010;5.546;2023-02-25T05:33:53;5.10;90.40
67141;DHT22;54058;52.010;5.546;2023-02-25T05:36:22;5.00;90.40
67141;DHT22;54058;52.010;5.546;2023-02-25T05:38:48;5.00;90.30
67141;DHT22;54058;52.010;5.546;2023-02-25T05:41:15;4.90;90.40
67141;DHT22;54058;52.010;5.546;2023-02-25T05:43:40;4.80;90.40
67141;DHT22;54058;52.010;5.546;2023-02-25T05:46:07;4.70;90.50
67141;DHT22;54058;52.010;5.546;2023-02-25T05:48:37;4.50;90.60
67141;DHT22;54058;52.010;5.546;2023-02-25T05:51:14;4.50;90.70
67141;DHT22;54058;52.010;5.546;2023-02-25T05:53:41;4.50;90.80
67141;DHT22;54058;52.010;5.546;2023-02-25T05:56:10;4.50;90.80
67141;DHT22;54058;52.010;5.546;2023-02-25T05:58:36;4.50;91.20
67141;DHT22;54058;52.010;5.546;2023-02-25T06:01:09;4.50;90.90
67141;DHT22;54058;52.010;5.546;2023-02-25T06:03:38;4.60;91.10
67141;DHT22;54058;52.010;5.546;2023-02-25T06:06:05;4.60;91.10
67141;DHT22;54058;52.010;5.546;2023-02-25T06:08:31;4.70;91.10
67141;DHT22;54058;52.010;5.546;2023-02-25T06:10:58;4.70;91.10
67141;DHT22;54058;52.010;5.546;2023-02-25T06:13:24;4.80;91.10
67141;DHT22;54058;52.010;5.546;2023-02-25T06:15:51;4.80;91.10
67141;DHT22;54058;52.010;5.546;2023-02-25T06:18:16;4.90;91.20
67141;DHT22;54058;52.010;5.546;2023-02-25T06:20:42;4.90;91.10
67141;DHT22;54058;52.010;5.546;2023-02-25T06:23:08;4.90;91.20
67141;DHT22;54058;52.010;5.546;2023-02-25T06:25:33;4.90;91.20
67141;DHT22;54058;52.010;5.546;2023-02-25T06:28:01;4.90;91.20
67141;DHT22;54058;52.010;5.546;2023-02-25T06:30:28;5.00;91.20
67141;DHT22;54058;52.010;5.546;2023-02-25T06:32:54;5.10;91.20
67141;DHT22;54058;52.010;5.546;2023-02-25T06:35:20;5.00;91.10
67141;DHT22;54058;52.010;5.546;2023-02-25T06:37:59;5.10;91.20
67141;DHT22;54058;52.010;5.546;2023-02-25T06:40:26;5.00;91.10
67141;DHT22;54058;52.010;5.546;2023-02-25T06:42:53;5.10;91.10
67141;DHT22;54058;52.010;5.546;2023-02-25T06:45:18;5.10;91.00
67141;DHT22;54058;52.010;5.546;2023-02-25T06:47:44;5.10;91.00
67141;DHT22;54058;52.010;5.546;2023-02-25T06:50:10;5.00;91.00
67141;DHT22;54058;52.010;5.546;2023-02-25T06:52:36;5.00;91.00
67141;DHT22;54058;52.010;5.546;2023-02-25T06:55:08;5.00;91.00
67141;DHT22;54058;52.010;5.546;2023-02-25T06:57:34;5.00;91.00
67141;DHT22;54058;52.010;5.546;2023-02-25T07:00:00;5.00;91.00
67141;DHT22;54058;52.010;5.546;2023-02-25T07:02:25;5.00;91.10
67141;DHT22;54058;52.010;5.546;2023-02-25T07:04:54;5.10;91.10
67141;DHT22;54058;52.010;5.546;2023-02-25T07:07:20;5.20;91.20
67141;DHT22;54058;52.010;5.546;2023-02-25T07:09:46;5.20;91.20
67141;DHT22;54058;52.010;5.546;2023-02-25T07:12:12;5.20;91.20
67141;DHT22;54058;52.010;5.546;2023-02-25T07:14:38;5.30;91.20
67141;DHT22;54058;52.010;5.546;2023-02-25T07:17:04;5.30;91.10
67141;DHT22;54058;52.010;5.546;2023-02-25T07:19:30;5.30;91.40
67141;DHT22;54058;52.010;5.546;2023-02-25T07:21:56;5.40;91.20
67141;DHT22;54058;52.010;5.546;2023-02-25T07:24:22;5.30;91.20
67141;DHT22;54058;52.010;5.546;2023-02-25T07:26:48;5.30;91.20
67141;DHT22;54058;52.010;5.546;2023-02-25T07:29:14;5.20;91.10
67141;DHT22;54058;52.010;5.546;2023-02-25T07:31:39;5.10;91.10
67141;DHT22;54058;52.010;5.546;2023-02-25T07:34:05;5.00;91.20
67141;DHT22;54058;52.010;5.546;2023-02-25T07:36:34;4.90;91.20
67141;DHT22;54058;52.010;5.546;2023-02-25T07:39:04;4.90;91.40
67141;DHT22;54058;52.010;5.546;2023-02-25T07:41:30;4.80;91.40
67141;DHT22;54058;52.010;5.546;2023-02-25T07:43:56;4.80;91.50
67141;DHT22;54058;52.010;5.546;2023-02-25T07:46:22;4.90;91.50
67141;DHT22;54058;52.010;5.546;2023-02-25T07:48:48;4.90;91.60
67141;DHT22;54058;52.010;5.546;2023-02-25T07:51:16;4.90;91.60
67141;DHT22;54058;52.010;5.546;2023-02-25T07:53:44;5.00;91.60
67141;DHT22;54058;52.010;5.546;2023-02-25T07:56:10;5.00;91.60
67141;DHT22;54058;52.010;5.546;2023-02-25T07:58:36;5.00;91.60
67141;DHT22;54058;52.010;5.546;2023-02-25T08:01:20;5.10;91.80
67141;DHT22;54058;52.010;5.546;2023-02-25T08:03:49;5.20;91.60
67141;DHT22;54058;52.010;5.546;2023-02-25T08:06:15;5.30;91.50
67141;DHT22;54058;52.010;5.546;2023-02-25T08:08:41;5.40;91.60
67141;DHT22;54058;52.010;5.546;2023-02-25T08:11:09;5.50;91.60
67141;DHT22;54058;52.010;5.546;2023-02-25T08:13:36;5.60;91.60
67141;DHT22;54058;52.010;5.546;2023-02-25T08:16:06;5.80;91.70
67141;DHT22;54058;52.010;5.546;2023-02-25T08:18:32;5.90;91.60
67141;DHT22;54058;52.010;5.546;2023-02-25T08:20:58;5.90;91.60
67141;DHT22;54058;52.010;5.546;2023-02-25T08:23:24;5.90;91.50
67141;DHT22;54058;52.010;5.546;2023-02-25T08:25:54;6.00;91.60
67141;DHT22;54058;52.010;5.546;2023-02-25T08:28:25;6.10;91.60
67141;DHT22;54058;52.010;5.546;2023-02-25T08:30:52;6.20;91.60
67141;DHT22;54058;52.010;5.546;2023-02-25T08:33:18;6.30;91.60
67141;DHT22;54058;52.010;5.546;2023-02-25T08:35:44;6.30;91.70
67141;DHT22;54058;52.010;5.546;2023-02-25T08:38:10;6.40;91.60
67141;DHT22;54058;52.010;5.546;2023-02-25T08:40:38;6.50;91.70
67141;DHT22;54058;52.010;5.546;2023-02-25T08:43:04;6.60;91.70
67141;DHT22;54058;52.010;5.546;2023-02-25T08:45:30;6.60;91.50
67141;DHT22;54058;52.010;5.546;2023-02-25T08:47:55;6.60;91.50
67141;DHT22;54058;52.010;5.546;2023-02-25T08:50:21;6.50;91.50
67141;DHT22;54058;52.010;5.546;2023-02-25T08:52:49;6.70;91.80
67141;DHT22;54058;52.010;5.546;2023-02-25T08:55:15;6.70;91.70
67141;DHT22;54058;52.010;5.546;2023-02-25T08:57:42;6.70;91.60
67141;DHT22;54058;52.010;5.546;2023-02-25T09:00:09;6.80;91.70
67141;DHT22;54058;52.010;5.546;2023-02-25T09:02:37;6.90;91.90
67141;DHT22;54058;52.010;5.546;2023-02-25T09:05:03;7.00;91.90
67141;DHT22;54058;52.010;5.546;2023-02-25T09:07:29;7.10;91.50
67141;DHT22;54058;52.010;5.546;2023-02-25T09:09:55;7.20;91.40
67141;DHT22;54058;52.010;5.546;2023-02-25T09:12:21;7.20;91.20
67141;DHT22;54058;52.010;5.546;2023-02-25T09:14:46;7.20;90.50
67141;DHT22;54058;52.010;5.546;2023-02-25T09:17:12;7.10;89.80
67141;DHT22;54058;52.010;5.546;2023-02-25T09:19:38;7.20;90.30
67141;DHT22;54058;52.010;5.546;2023-02-25T09:22:08;7.10;87.90
67141;DHT22;54058;52.010;5.546;2023-02-25T09:24:34;7.00;88.70
67141;DHT22;54058;52.010;5.546;2023-02-25T09:27:01;6.90;88.90
67141;DHT22;54058;52.010;5.546;2023-02-25T09:29:36;6.90;88.80
67141;DHT22;54058;52.010;5.546;2023-02-25T09:32:01;6.90;88.70
67141;DHT22;54058;52.010;5.546;2023-02-25T09:34:27;6.90;88.80
67141;DHT22;54058;52.010;5.546;2023-02-25T09:36:53;6.90;88.90
67141;DHT22;54058;52.010;5.546;2023-02-25T09:39:18;6.90;87.40
67141;DHT22;54058;52.010;5.546;2023-02-25T09:41:51;6.90;87.70
67141;DHT22;54058;52.010;5.546;2023-02-25T09:46:53;6.90;87.30
67141;DHT22;54058;52.010;5.546;2023-02-25T09:52:02;6.80;87.70
67141;DHT22;54058;52.010;5.546;2023-02-25T09:54:33;7.00;87.60
67141;DHT22;54058;52.010;5.546;2023-02-25T09:57:03;7.10;86.90
67141;DHT22;54058;52.010;5.546;2023-02-25T09:59:31;7.10;86.80
67141;DHT22;54058;52.010;5.546;2023-02-25T10:05:23;7.20;86.00
67141;DHT22;54058;52.010;5.546;2023-02-25T10:07:56;7.20;84.50
67141;DHT22;54058;52.010;5.546;2023-02-25T10:10:33;7.20;86.50
67141;DHT22;54058;52.010;5.546;2023-02-25T10:19:32;7.40;85.60
67141;DHT22;54058;52.010;5.546;2023-02-25T10:25:09;7.30;83.90
67141;DHT22;54058;52.010;5.546;2023-02-25T10:27:40;7.30;86.20
67141;DHT22;54058;52.010;5.546;2023-02-25T10:33:03;7.20;82.80
67141;DHT22;54058;52.010;5.546;2023-02-25T10:35:32;7.20;83.50
67141;DHT22;54058;52.010;5.546;2023-02-25T10:38:01;7.30;83.70
67141;DHT22;54058;52.010;5.546;2023-02-25T10:40:27;7.30;84.20
67141;DHT22;54058;52.010;5.546;2023-02-25T10:42:59;7.30;83.20
67141;DHT22;54058;52.010;5.546;2023-02-25T10:45:29;7.30;82.80
67141;DHT22;54058;52.010;5.546;2023-02-25T10:48:15;7.30;81.30
67141;DHT22;54058;52.010;5.546;2023-02-25T10:50:41;7.30;80.50
67141;DHT22;54058;52.010;5.546;2023-02-25T10:53:16;7.40;82.80
67141;DHT22;54058;52.010;5.546;2023-02-25T11:00:56;7.60;80.20
67141;DHT22;54058;52.010;5.546;2023-02-25T11:03:23;7.60;80.20
67141;DHT22;54058;52.010;5.546;2023-02-25T11:05:49;7.60;82.00
67141;DHT22;54058;52.010;5.546;2023-02-25T11:08:32;7.70;81.90
67141;DHT22;54058;52.010;5.546;2023-02-25T11:11:04;7.70;78.90
67141;DHT22;54058;52.010;5.546;2023-02-25T11:13:33;7.70;80.10
67141;DHT22;54058;52.010;5.546;2023-02-25T11:16:08;7.70;79.30
67141;DHT22;54058;52.010;5.546;2023-02-25T11:18:35;7.60;79.90
67141;DHT22;54058;52.010;5.546;2023-02-25T11:21:05;7.50;81.40
67141;DHT22;54058;52.010;5.546;2023-02-25T11:23:38;7.40;80.00
67141;DHT22;54058;52.010;5.546;2023-02-25T11:26:14;7.10;77.70
67141;DHT22;54058;52.010;5.546;2023-02-25T11:28:45;6.70;75.00
67141;DHT22;54058;52.010;5.546;2023-02-25T11:31:20;6.30;78.30
67141;DHT22;54058;52.010;5.546;2023-02-25T11:33:54;5.90;81.80
67141;DHT22;54058;52.010;5.546;2023-02-25T11:36:28;5.70;82.80
67141;DHT22;54058;52.010;5.546;2023-02-25T11:39:13;5.50;84.00
67141;DHT22;54058;52.010;5.546;2023-02-25T11:41:40;5.30;84.40
67141;DHT22;54058;52.010;5.546;2023-02-25T11:44:24;5.20;85.30
67141;DHT22;54058;52.010;5.546;2023-02-25T11:46:57;5.20;86.60
67141;DHT22;54058;52.010;5.546;2023-02-25T11:52:31;5.40;86.80
67141;DHT22;54058;52.010;5.546;2023-02-25T12:06:52;6.40;85.90
67141;DHT22;54058;52.010;5.546;2023-02-25T12:09:39;6.50;84.70
67141;DHT22;54058;52.010;5.546;2023-02-25T12:12:37;6.50;84.20
67141;DHT22;54058;52.010;5.546;2023-02-25T12:15:20;6.60;84.50
67141;DHT22;54058;52.010;5.546;2023-02-25T12:38:54;7.30;64.50
67141;DHT22;54058;52.010;5.546;2023-02-25T12:47:13;7.30;70.90
67141;DHT22;54058;52.010;5.546;2023-02-25T12:50:07;7.10;68.80
67141;DHT22;54058;52.010;5.546;2023-02-25T12:52:46;7.10;70.90
67141;DHT22;54058;52.010;5.546;2023-02-25T13:04:03;7.30;68.80
67141;DHT22;54058;52.010;5.546;2023-02-25T13:09:54;7.40;63.60
67141;DHT22;54058;52.010;5.546;2023-02-25T13:24:18;7.30;65.40
67141;DHT22;54058;52.010;5.546;2023-02-25T13:27:10;7.20;68.20
67141;DHT22;54058;52.010;5.546;2023-02-25T13:39:31;7.60;64.60
67141;DHT22;54058;52.010;5.546;2023-02-25T13:41:50;7.60;69.00
67141;DHT22;54058;52.010;5.546;2023-02-25T13:44:31;7.50;69.00
67141;DHT22;54058;52.010;5.546;2023-02-25T13:50:26;7.40;69.10
67141;DHT22;54058;52.010;5.546;2023-02-25T13:58:43;7.40;63.40
67141;DHT22;54058;52.010;5.546;2023-02-25T14:01:33;7.40;69.30
67141;DHT22;54058;52.010;5.546;2023-02-25T14:10:20;7.30;62.70
67141;DHT22;54058;52.010;5.546;2023-02-25T14:15:31;7.10;69.00
67141;DHT22;54058;52.010;5.546;2023-02-25T14:18:22;7.20;71.20
67141;DHT22;54058;52.010;5.546;2023-02-25T14:23:50;7.20;69.60
67141;DHT22;54058;52.010;5.546;2023-02-25T14:26:44;7.20;69.70
67141;DHT22;54058;52.010;5.546;2023-02-25T14:29:50;7.30;68.10
67141;DHT22;54058;52.010;5.546;2023-02-25T14:48:18;7.10;69.00
67141;DHT22;54058;52.010;5.546;2023-02-25T14:53:49;7.10;68.10
67141;DHT22;54058;52.010;5.546;2023-02-25T14:56:39;7.20;67.40
67141;DHT22;54058;52.010;5.546;2023-02-25T15:02:19;7.10;65.00
67141;DHT22;54058;52.010;5.546;2023-02-25T15:05:17;7.00;66.00
67141;DHT22;54058;52.010;5.546;2023-02-25T15:10:45;6.90;64.80
67141;DHT22;54058;52.010;5.546;2023-02-25T15:21:38;6.80;61.50
67141;DHT22;54058;52.010;5.546;2023-02-25T15:24:39;6.80;59.10
67141;DHT22;54058;52.010;5.546;2023-02-25T15:30:06;6.60;55.50
67141;DHT22;54058;52.010;5.546;2023-02-25T15:42:58;6.50;62.60
67141;DHT22;54058;52.010;5.546;2023-02-25T15:48:22;6.40;61.20
67141;DHT22;54058;52.010;5.546;2023-02-25T15:50:52;6.40;56.80
67141;DHT22;54058;52.010;5.546;2023-02-25T15:58:45;6.30;61.50
67141;DHT22;54058;52.010;5.546;2023-02-25T16:01:55;6.30;57.30
67141;DHT22;54058;52.010;5.546;2023-02-25T16:07:06;6.20;58.10
67141;DHT22;54058;52.010;5.546;2023-02-25T16:09:32;6.20;61.30
67141;DHT22;54058;52.010;5.546;2023-02-25T16:12:04;6.20;62.90
67141;DHT22;54058;52.010;5.546;2023-02-25T16:14:33;6.10;61.60
67141;DHT22;54058;52.010;5.546;2023-02-25T16:17:05;6.10;62.80
67141;DHT22;54058;52.010;5.546;2023-02-25T16:19:35;6.10;63.80
67141;DHT22;54058;52.010;5.546;2023-02-25T16:22:06;6.10;64.80
67141;DHT22;54058;52.010;5.546;2023-02-25T16:24:36;6.00;63.70
67141;DHT22;54058;52.010;5.546;2023-02-25T16:27:04;6.00;63.90
67141;DHT22;54058;52.010;5.546;2023-02-25T16:35:09;5.90;61.30
67141;DHT22;54058;52.010;5.546;2023-02-25T16:42:49;5.90;62.80
67141;DHT22;54058;52.010;5.546;2023-02-25T16:45:24;5.80;62.30
67141;DHT22;54058;52.010;5.546;2023-02-25T16:47:57;5.80;62.60
67141;DHT22;54058;52.010;5.546;2023-02-25T16:50:25;5.70;63.30
67141;DHT22;54058;52.010;5.546;2023-02-25T16:52:52;5.60;64.40
67141;DHT22;54058;52.010;5.546;2023-02-25T16:55:21;5.60;64.10
67141;DHT22;54058;52.010;5.546;2023-02-25T17:00:25;5.50;64.40
67141;DHT22;54058;52.010;5.546;2023-02-25T17:02:51;5.50;64.50
67141;DHT22;54058;52.010;5.546;2023-02-25T17:05:31;5.40;65.90
67141;DHT22;54058;52.010;5.546;2023-02-25T17:07:59;5.40;65.30
67141;DHT22;54058;52.010;5.546;2023-02-25T17:10:29;5.30;65.20
67141;DHT22;54058;52.010;5.546;2023-02-25T17:12:55;5.30;64.40
67141;DHT22;54058;52.010;5.546;2023-02-25T17:15:40;5.30;64.10
67141;DHT22;54058;52.010;5.546;2023-02-25T17:18:19;5.20;63.20
67141;DHT22;54058;52.010;5.546;2023-02-25T17:20:49;5.20;64.50
67141;DHT22;54058;52.010;5.546;2023-02-25T17:23:15;5.10;64.70
67141;DHT22;54058;52.010;5.546;2023-02-25T17:25:44;5.10;65.40
67141;DHT22;54058;52.010;5.546;2023-02-25T17:28:37;5.00;66.50
67141;DHT22;54058;52.010;5.546;2023-02-25T17:31:09;5.00;64.30
67141;DHT22;54058;52.010;5.546;2023-02-25T17:33:47;5.00;66.40
67141;DHT22;54058;52.010;5.546;2023-02-25T17:36:16;4.90;66.90
67141;DHT22;54058;52.010;5.546;2023-02-25T17:38:44;4.80;65.60
67141;DHT22;54058;52.010;5.546;2023-02-25T17:41:17;4.80;67.20
67141;DHT22;54058;52.010;5.546;2023-02-25T17:43:44;4.80;66.20
67141;DHT22;54058;52.010;5.546;2023-02-25T17:48:51;4.70;64.70
67141;DHT22;54058;52.010;5.546;2023-02-25T17:51:26;4.70;67.00
67141;DHT22;54058;52.010;5.546;2023-02-25T17:53:58;4.70;67.10
67141;DHT22;54058;52.010;5.546;2023-02-25T17:56:30;4.60;65.90
67141;DHT22;54058;52.010;5.546;2023-02-25T17:59:06;4.60;68.30
67141;DHT22;54058;52.010;5.546;2023-02-25T18:01:49;4.60;68.10
67141;DHT22;54058;52.010;5.546;2023-02-25T18:06:52;4.50;68.40
67141;DHT22;54058;52.010;5.546;2023-02-25T18:11:57;4.50;68.50
67141;DHT22;54058;52.010;5.546;2023-02-25T18:14:36;4.40;68.20
67141;DHT22;54058;52.010;5.546;2023-02-25T18:19:55;4.40;69.30
67141;DHT22;54058;52.010;5.546;2023-02-25T18:24:57;4.30;68.80
67141;DHT22;54058;52.010;5.546;2023-02-25T18:27:30;4.30;69.00
67141;DHT22;54058;52.010;5.546;2023-02-25T18:30:18;4.20;69.80
67141;DHT22;54058;52.010;5.546;2023-02-25T18:32:45;4.20;69.10
67141;DHT22;54058;52.010;5.546;2023-02-25T18:35:11;4.20;69.60
67141;DHT22;54058;52.010;5.546;2023-02-25T18:37:37;4.20;70.00
67141;DHT22;54058;52.010;5.546;2023-02-25T18:40:03;4.20;70.10
67141;DHT22;54058;52.010;5.546;2023-02-25T18:42:29;4.20;70.40
67141;DHT22;54058;52.010;5.546;2023-02-25T18:44:55;4.20;70.20
67141;DHT22;54058;52.010;5.546;2023-02-25T18:47:21;4.10;70.80
67141;DHT22;54058;52.010;5.546;2023-02-25T18:49:47;4.20;71.00
67141;DHT22;54058;52.010;5.546;2023-02-25T18:52:20;4.10;71.10
67141;DHT22;54058;52.010;5.546;2023-02-25T18:54:46;4.10;71.30
67141;DHT22;54058;52.010;5.546;2023-02-25T18:57:19;4.20;71.70
67141;DHT22;54058;52.010;5.546;2023-02-25T18:59:45;4.20;71.20
67141;DHT22;54058;52.010;5.546;2023-02-25T19:02:27;4.20;72.00
67141;DHT22;54058;52.010;5.546;2023-02-25T19:04:53;4.20;72.20
67141;DHT22;54058;52.010;5.546;2023-02-25T19:07:21;4.20;72.50
67141;DHT22;54058;52.010;5.546;2023-02-25T19:09:46;4.30;72.90
67141;DHT22;54058;52.010;5.546;2023-02-25T19:12:13;4.30;73.10
67141;DHT22;54058;52.010;5.546;2023-02-25T19:14:40;4.30;73.20
67141;DHT22;54058;52.010;5.546;2023-02-25T19:17:14;4.30;73.20
67141;DHT22;54058;52.010;5.546;2023-02-25T19:19:40;4.20;73.40
67141;DHT22;54058;52.010;5.546;2023-02-25T19:22:13;4.20;73.60
67141;DHT22;54058;52.010;5.546;2023-02-25T19:24:42;4.20;73.70
67141;DHT22;54058;52.010;5.546;2023-02-25T19:29:49;4.10;73.90
67141;DHT22;54058;52.010;5.546;2023-02-25T19:32:16;4.10;74.00
67141;DHT22;54058;52.010;5.546;2023-02-25T19:34:42;4.00;74.20
67141;DHT22;54058;52.010;5.546;2023-02-25T19:37:09;4.10;74.50
67141;DHT22;54058;52.010;5.546;2023-02-25T19:39:40;4.00;74.60
67141;DHT22;54058;52.010;5.546;2023-02-25T19:42:15;4.00;74.70
67141;DHT22;54058;52.010;5.546;2023-02-25T19:44:40;4.00;74.80
67141;DHT22;54058;52.010;5.546;2023-02-25T19:47:06;3.90;75.40
67141;DHT22;54058;52.010;5.546;2023-02-25T19:49:32;3.90;74.90
67141;DHT22;54058;52.010;5.546;2023-02-25T19:51:58;3.90;75.00
67141;DHT22;54058;52.010;5.546;2023-02-25T19:54:24;3.80;75.10